Tiempo atmosférico en la estación meteorológica de Ponferrada, León (534 m.)



Fecha
DESCASC
Temp. máxima en grados centígrados (hora)
DESCASC
Temp. mínima en grados centígrados (hora)
DESCASC
Temp. media en grados centígrados
DESCASC
Racha de viento máxima en m/sg (hora)
DESCASC
Velocidad máxima media en intervalos de 10 minutos(hora)
DESCASC
Precipitaciones diarias en mm
DESCASC
Precipitaciones de 00:00 a 06:00 en mm
DESCASC
Precipitaciones de 06:00 a 12:00 en mm
DESCASC
Precipitaciones de 12:00 a 18:00 en mm
DESCASC
Precipitaciones de 18:00 a 24:00 en mm
DESCASC
08-12-2019 11.3 (16:50) 5 (00:00) 8.2 2.78 (11:00) 1.67 (11:20) 3 0 2.2 0.8 0
07-12-2019 10.4 (16:20) 1 (08:40) 5.7 2.78 (00:40) 1.67 (07:10) 0 0 0 0 0
06-12-2019 9.7 (17:00) -0.1 (08:40) 4.8 3.33 (09:40) 1.94 (14:00) 0 0 0 0 0
05-12-2019 11.1 (17:10) -1.2 (-00:0) 5 3.33 (11:50) 1.67 (14:20) 0 0 0 0 0
04-12-2019 11 (16:30) -2 (-00:0) 4.5 3.61 (03:50) 1.67 (03:50) 0 0 0 0 0
03-12-2019 10.6 (17:00) -2.7 (-00:0) 4 3.33 (23:59) 1.94 (20:50) 0 0 0 0 0
02-12-2019 13.9 (15:50) 0.6 (00:00) 7.2 5.83 (23:30) 3.61 (23:20) 0 0 0 0 0
01-12-2019 13.1 (16:10) 6.5 (00:00) 9.8 7.22 (03:00) 4.72 (02:50) 2.6 2.4 0.2 0 0
30-11-2019 13.3 (15:40) 7.2 (00:00) 10.3 9.17 (12:10) 4.72 (16:20) 6.6 0.8 5.6 0 0.2
29-11-2019 11.4 (00:00) 5.4 (00:00) 8.4 3.33 (14:00) 1.94 (14:00) 0 0 0 0 0
28-11-2019 15.1 (12:30) 9.5 (00:00) 12.3 9.17 (12:30) 4.44 (12:30) -- 0.4 -- 3 1
27-11-2019 11.8 (12:10) 9.9 (00:00) 10.8 10.28 (02:00) 4.44 (02:00) 2 0.2 0 0.6 1.2
26-11-2019 -- (--) -- (--) -- -- (--) -- (--) -- -- -- -- 3
25-11-2019 14.8 (15:50) 7.9 (00:00) 11.4 8.89 (12:00) 3.89 (12:00) -- 0 0 -- 0
24-11-2019 10.2 (13:30) 5.9 (00:00) 8 4.44 (00:10) 2.5 (00:10) 5.8 0 0 0.4 5.4
23-11-2019 -- (--) -- (--) -- -- (--) -- (--) -- -- -- -- --
22-11-2019 12.3 (14:40) 4.8 (00:00) 8.6 10.83 (16:30) 4.72 (16:30) 26 4.2 11 5.2 5.6
21-11-2019 11.4 (15:40) 3.6 (00:00) 7.5 5.83 (17:20) 3.33 (17:20) 2.8 2.6 0.2 0 0
20-11-2019 10.6 (15:40) 4.7 (00:00) 7.7 4.72 (18:00) 2.5 (18:00) 4.8 2.4 2 0 0.4
19-11-2019 6 (17:10) -0.9 (-00:0) 2.6 2.78 (12:50) 1.39 (12:50) 1.8 0 0 0 1.8
18-11-2019 11.8 (14:00) 1.5 (00:00) 6.7 6.11 (12:30) 2.5 (11:40) 0 0 0 0 0
17-11-2019 10.4 (15:20) 4.9 (00:00) 7.6 9.44 (14:30) 5 (14:40) 5 0.2 4.4 0.2 0.2
16-11-2019 -- (--) -- (--) -- -- (--) -- (--) -- -- -- 0.2 0
15-11-2019 7.5 (15:00) 2.7 (00:00) 5.1 -- (--) -- (--) -- -- 0 0.6 1.6
14-11-2019 8.7 (00:00) 3.3 (00:00) 6 13.61 (02:20) 6.39 (02:20) 24 2.6 3 6.4 12
13-11-2019 14.1 (13:50) 7.7 (00:00) 10.9 10.56 (22:20) 5.28 (13:50) -- -- 0 0 0.6
12-11-2019 10.2 (23:50) 4.7 (00:00) 7.4 -- (--) -- (--) -- 0 -- 5 14.6

Gráficas

Temp. máximas Temp. mínimas Temp. medias Precipitaciones Rachas de viento máximas Velocidades máximas media en intervalos de 10 minutos

Datos horarios

Fecha y hora oficial Temperatura (ºC) Velocidad del viento (km/h) Dirección del viento Racha (km/h) Dirección de racha Precipitación (mm) Presión (hPa) Tendencia (hPa) Humedad (%)
2019-12-11 23:00:00 6.9 5 Oeste 18 Noroeste 0.2 961.8 -1 89
2019-12-11 22:00:00 7.2 4 Oeste 15 Sudoeste 0 962.1 -0.6 84
2019-12-11 21:00:00 7.1 6 Oeste 14 Noroeste 0 962.8 0 86
2019-12-11 20:00:00 6.8 7 Sudoeste 16 Oeste 0 962.8 -0.1 90
2019-12-11 19:00:00 7.1 6 Oeste 18 Oeste 0.2 962.7 0.1 87
2019-12-11 18:00:00 7.1 9 Oeste 22 Oeste 0 962.8 -0.1 87
2019-12-11 17:00:00 7.2 6 Oeste 23 Oeste 0.2 962.9 -0.4 85
2019-12-11 16:00:00 8 10 Oeste 21 Sudoeste 0 962.6 -1.5 73
2019-12-11 15:00:00 8.5 8 Oeste 20 Oeste 0 962.9 -1.6 65
2019-12-11 14:00:00 8.9 12 Oeste 24 Noroeste 0 963.3 -0.7 62
2019-12-11 13:00:00 7.9 8 Oeste 20 Noroeste 0 964.1 0.7 73
2019-12-11 12:00:00 7.9 9 Oeste 20 Oeste 0 964.5 2.1 76
2019-12-11 11:00:00 7.8 11 Oeste 31 Oeste 0 964 2.6 69
2019-12-11 10:00:00 6.4 13 Oeste 27 Sudoeste 0 963.4 2.8 77
2019-12-11 09:00:00 6 15 Oeste 28 Oeste 0 962.4 2.4 84
2019-12-11 08:00:00 6 5 Noroeste 18 Noroeste 0 961.4 2.2 92
2019-12-11 07:00:00 6.6 9 Oeste 27 Oeste 0 960.6 1 92
2019-12-11 06:00:00 4.3 4 Este 14 Oeste 0.6 960 0 99
2019-12-11 05:00:00 4.4 5 Noroeste 10 Oeste 1 959.2 -1.1 99
2019-12-11 04:00:00 4.3 5 Sudeste 10 Sudeste 1 959.6 -1.6 99
2019-12-11 03:00:00 4 3 Norte 8 Norte 0 960 -1.6 99
2019-12-11 02:00:00 3.9 3 Sudeste 7 Oeste 0 960.3 -1.7 99
2019-12-11 01:00:00 4 4 Oeste 7 Noroeste 0 961.2 -1.4 98
2019-12-11 00:00:00 3.9 3 Este 13 Nordeste 0 961.6 -1.1 98
2019-12-10 23:00:00 4.1 5 Sudeste 14 Sudeste 0 962 -1 99
2019-12-10 22:00:00 3.9 3 Noroeste 6 Oeste 0 962.6 -0.5 99
2019-12-10 21:00:00 3.8 3 Oeste 12 Norte 0 962.7 -0.7 99
2019-12-10 20:00:00 3.3 4 Sudeste 8 Norte 0 963 -0.6 97
2019-12-10 19:00:00 4 3 Este 8 Este 0 963.1 -0.9 95
2019-12-10 18:00:00 4.7 6 Sudeste 9 Sudeste 0 963.4 -1.3 94
2019-12-10 17:00:00 4.9 4 Noroeste 8 Oeste 0 963.6 -2.2 92
2019-12-10 16:00:00 4.8 5 Oeste 9 Noroeste 0 964 -2.7 92
2019-12-10 15:00:00 4.7 3 Noroeste 8 Oeste 0 964.7 -3.3 92
2019-12-10 14:00:00 4.2 5 Noroeste -- -- -- 965.8 -2.6 93
2019-12-10 13:00:00 3.9 3 Oeste 7 Noroeste 0 966.7 -1.7 95
2019-12-10 12:00:00 3.1 3 Sur 7 Sur 0 968 -0.5 96
2019-12-10 11:00:00 2.8 2 Sur 7 Oeste 0 968.4 -0.2 98
2019-12-10 10:00:00 2.6 0 Calma 5 Este 0 968.4 0 100
2019-12-10 09:00:00 2.4 2 Norte 4 Sudeste 0 968.5 0 100
2019-12-10 08:00:00 2.1 0 Calma 8 Sudeste 0 968.6 -0.3 100
2019-12-10 07:00:00 1.8 3 Sudeste 7 Sur 0 968.4 -0.9 100
2019-12-10 06:00:00 1.5 4 Sudeste 9 Sudeste 0 968.5 -1 100
2019-12-10 05:00:00 1.7 5 Sudeste 10 Sudeste 0 968.9 -0.8 100
2019-12-10 04:00:00 1.7 2 Este 4 Este 0 969.3 -0.9 100
2019-12-10 03:00:00 1.1 2 Este 5 Este 0 969.5 -0.5 99
2019-12-10 02:00:00 1.2 2 Noroeste 5 Norte 0 969.7 -0.3 98
2019-12-10 01:00:00 1.6 2 Noroeste 4 Nordeste 0 970.2 0.1 97
2019-12-10 00:00:00 2.2 3 Este 5 Noroeste 0 970 0 95
2019-12-09 23:00:00 3.1 2 Oeste 9 Sur 0 970 0.6 96
2019-12-09 22:00:00 3.7 4 Sur 8 Sur 0 970.1 0.9 97
2019-12-09 21:00:00 4.3 3 Este 7 Norte 0 970 1.4 93
2019-12-09 20:00:00 5.5 0 Calma 6 Sudeste 0 969.4 1.1 93
2019-12-09 19:00:00 6.5 0 Calma 5 Este 0 969.2 1.2 90
2019-12-09 18:00:00 8.4 0 Calma 6 Oeste 0 968.6 0.5 84
2019-12-09 17:00:00 9.8 0 Calma 5 Noroeste 0 968.3 -0.1 78
2019-12-09 16:00:00 10.1 2 Este 5 Oeste 0 968 -1.2 76
2019-12-09 15:00:00 9.8 0 Calma 5 Nordeste 0 968.1 -1.7 77
2019-12-09 14:00:00 8.2 3 Norte 7 Nordeste 0 968.4 -1 85
2019-12-09 13:00:00 7.3 6 Noroeste 10 Noroeste 0 969.2 0 87
2019-12-09 12:00:00 6.9 5 Oeste 9 Nordeste 0 969.8 1.2 86
2019-12-09 11:00:00 5.8 2 Oeste 10 Sudeste 0 969.4 1.2 92
2019-12-09 10:00:00 4 4 Sudeste 10 Sudeste 0 969.2 1.2 100
2019-12-09 09:00:00 3.5 2 Oeste 9 Sudoeste 0 968.6 1 100
2019-12-09 08:00:00 3.3 4 Sudeste 8 Sudeste 0 968.2 0.8 100
2019-12-09 07:00:00 3 2 Nordeste 7 Sudoeste 0 968 0.9 99
2019-12-09 06:00:00 3.5 2 Noroeste 6 Noroeste 0 967.6 0.9 99
2019-12-09 05:00:00 3.8 2 Sudoeste 5 Noroeste 0 967.4 0.6 99
2019-12-09 04:00:00 3.8 3 Norte 8 Noroeste 0 967.1 0.3 99
2019-12-09 03:00:00 4.4 3 Sur 8 Oeste 0 966.7 0.2 99
2019-12-09 02:00:00 4.8 0 Calma 4 Este 0 966.8 0.7 99
2019-12-09 01:00:00 6 0 Calma 6 Oeste 0 966.8 1.5 98
2019-12-09 00:00:00 6.2 2 Norte 7 Este 0 966.5 1.7 100
2019-12-08 23:00:00 5.1 4 Sudeste 8 Este 0 966.1 1.6 99
2019-12-08 22:00:00 6.6 3 Noroeste 7 Noroeste 0 965.3 1.4 100
2019-12-08 21:00:00 5.7 2 Sur 8 Noroeste 0 964.8 1.8 98
2019-12-08 20:00:00 6.4 2 Nordeste 5 Este 0 964.5 2 97
2019-12-08 19:00:00 7.7 2 Norte 4 Noroeste 0 963.9 1.7 96
2019-12-08 18:00:00 9.6 3 Nordeste 5 Este 0 963 1 94
2019-12-08 17:00:00 11.2 0 Calma 6 Norte 0 962.5 0.6 90
2019-12-08 16:00:00 10.1 3 Norte 8 Sudeste 0 962.2 -0.3 96
2019-12-08 15:00:00 8.6 3 Sur 9 Noroeste 0 962 -1 97
2019-12-08 14:00:00 8.3 3 Noroeste 6 Noroeste 0 961.9 -0.8 96
2019-12-08 13:00:00 7.7 0 Calma 8 Norte 0.8 962.5 0.2 96
2019-12-08 12:00:00 7.4 4 Noroeste 10 Este 0.2 963 1 96
2019-12-08 11:00:00 6.9 6 Sudeste 10 Sudeste 2 962.7 0.8 97
2019-12-08 10:00:00 6.8 0 Calma 4 Noroeste 0 962.3 0.7 94
2019-12-08 09:00:00 6.6 0 Calma 7 Sudeste 0 962 -0.2 94
2019-12-08 08:00:00 6.4 0 Calma 9 Noroeste 0 961.9 0.1 94
2019-12-08 07:00:00 6.4 2 Norte 7 Sudeste 0 961.6 -0.5 94
2019-12-08 06:00:00 6.2 2 Noroeste 5 Noroeste 0 962.2 0.1 93
2019-12-08 05:00:00 6.3 3 Noroeste 5 Noroeste 0 961.8 -0.5 93
2019-12-08 04:00:00 6.3 0 Calma 4 Sudeste 0 962.1 -0.6 93
2019-12-08 03:00:00 6 2 Sudoeste 4 Noroeste 0 962.1 -0.6 94
2019-12-08 02:00:00 5.8 0 Calma 5 Este 0 962.3 -0.4 93
2019-12-08 01:00:00 5.4 3 Noroeste 5 Noroeste 0 962.7 0.3 94
2019-12-08 00:00:00 5 0 Calma 5 Sudeste 0 962.7 0.4 94
2019-12-07 23:00:00 4.5 2 Este 8 Noroeste 0 962.7 0.6 92
2019-12-07 22:00:00 4.7 3 Sudeste 6 Sudeste 0 962.4 0.7 92
2019-12-07 21:00:00 5.5 3 Sudeste 5 Sur 0 962.3 1 88
2019-12-07 20:00:00 7.6 2 Noroeste 5 Este 0 962.1 1.1 83
2019-12-07 19:00:00 8.7 3 Este 6 Noroeste 0 961.7 1 81
2019-12-07 18:00:00 9.4 2 Noroeste 8 Noroeste 0 961.3 0.3 77
2019-12-07 17:00:00 10.1 3 Sudeste 6 Noroeste 0 961 -0.7 71
2019-12-07 16:00:00 10 3 Oeste 7 Noroeste 0 960.7 -1.8 72
2019-12-07 15:00:00 8.6 4 Sur 7 Sudoeste 0 961 -2.3 77
2019-12-07 14:00:00 6.6 4 Oeste 10 Noroeste 0 961.7 -1.6 86
2019-12-07 13:00:00 5.7 5 Oeste 8 Oeste 0 962.5 -0.5 90
2019-12-07 12:00:00 4.3 0 Calma 8 Sur 0 963.3 0.6 92
2019-12-07 11:00:00 3.2 6 Sudeste 9 Sudeste 0 963.3 1.1 97
2019-12-07 10:00:00 1.9 2 Este 5 Noroeste 0 963 1.1 100
2019-12-07 09:00:00 1 2 Noroeste 6 Norte 0 962.7 1 99
2019-12-07 08:00:00 1.4 0 Calma 10 Sur 0 962.2 0.2 98
2019-12-07 07:00:00 1.8 6 Sudeste 9 Sudeste 0 961.9 0 99
2019-12-07 06:00:00 1.9 3 Norte 6 Norte 0 961.7 -0.1 99
2019-12-07 05:00:00 1.7 0 Calma 5 Sudeste 0 962 0 99
2019-12-07 04:00:00 1.5 3 Sur 7 Norte 0 961.9 -0.5 95
2019-12-07 03:00:00 1.7 4 Sudeste 9 Nordeste 0 961.8 -0.5 95
2019-12-07 02:00:00 2.6 0 Calma 9 Oeste 0 962 0.1 95
2019-12-07 01:00:00 3.3 5 Oeste 10 Norte 0 962.4 0.9 96
2019-12-07 00:00:00 2.2 4 Sudeste 7 Sur 0 962.3 0.9 98
2019-12-06 23:00:00 2.3 0 Calma 4 Oeste 0 961.9 1 96
2019-12-06 22:00:00 2.8 0 Calma 5 Sudeste 0 961.5 1.2 94
2019-12-06 21:00:00 3.6 2 Sudeste 8 Norte 0 961.4 1.3 92
2019-12-06 20:00:00 4.2 2 Este 3 Este 0 960.9 1.1 89
2019-12-06 19:00:00 5.8 0 Calma 6 Sudeste 0 960.3 0.3 87
2019-12-06 18:00:00 7.9 4 Sudeste 7 Noroeste 0 960.1 -0.3 79
2019-12-06 17:00:00 9.6 5 Noroeste 8 Noroeste 0 959.8 -1.2 72
2019-12-06 16:00:00 8.5 2 Este 9 Sur 0 960 -1.7 77
2019-12-06 15:00:00 7.9 5 Sur 10 Oeste 0 960.4 -2.2 80
2019-12-06 14:00:00 6.8 7 Oeste 10 Oeste 0 961 -1.9 84
2019-12-06 13:00:00 6.1 3 Oeste 11 Oeste 0 961.7 -0.7 87
2019-12-06 12:00:00 4.9 3 Sur 8 Sudeste 0 962.6 0.8 88
2019-12-06 11:00:00 2.2 2 Sur 5 Oeste 0 962.9 1.6 100
2019-12-06 10:00:00 0.4 5 Oeste 12 Noroeste 0 962.4 1.3 99
2019-12-06 09:00:00 -0.1 3 Sudeste 9 Noroeste 0 961.8 0.8 98
2019-12-06 08:00:00 0.4 3 Nordeste 5 Norte 0 961.3 -0.1 98
2019-12-06 07:00:00 0.8 0 Calma 8 Noroeste 0 961.1 0.2 98
2019-12-06 06:00:00 1.2 3 Noroeste 6 Sudeste 0 961 -0.3 99
2019-12-06 05:00:00 0.7 3 Sudeste 10 Noroeste 0 961.4 0.3 96
2019-12-06 04:00:00 1.4 5 Noroeste 8 Noroeste 0 960.9 -0.4 98
2019-12-06 03:00:00 1.3 3 Este 6 Noroeste 0 961.3 0.3 95
2019-12-06 02:00:00 2.1 2 Noroeste 8 Oeste 0 961.1 0.2 96
2019-12-06 01:00:00 2.5 3 Sudeste 7 Norte 0 961.3 0.5 93
2019-12-06 00:00:00 2.5 3 Sudeste 6 Sudoeste 0 961 0.9 93
2019-12-05 23:00:00 3.3 3 Norte 5 Este 0 960.9 0.8 93
2019-12-05 22:00:00 3.8 3 Este 10 Oeste 0 960.8 1.4 91
2019-12-05 21:00:00 5 4 Noroeste 9 Oeste 0 960.1 1.5 90
2019-12-05 20:00:00 5.4 2 Norte 6 Noroeste 0 960.1 1.9 85
2019-12-05 19:00:00 6.7 3 Este 9 Oeste 0 959.4 1.6 80
2019-12-05 18:00:00 9 3 Norte 5 Norte 0 958.6 0.3 73
2019-12-05 17:00:00 11 0 Calma 6 Oeste 0 958.2 -0.2 63
2019-12-05 16:00:00 10.3 3 Oeste 8 Noroeste 0 957.8 -1.5 64
2019-12-05 15:00:00 8.5 3 Oeste 11 Oeste 0 958.3 -1.9 70
2019-12-05 14:00:00 6.6 5 Oeste 9 Oeste 0 958.4 -1.6 78
2019-12-05 13:00:00 3.5 5 Noroeste 9 Sudeste 0 959.3 0 89
2019-12-05 12:00:00 0.5 3 Sudoeste 12 Oeste 0 960.2 1.6 100
2019-12-05 11:00:00 -0.3 5 Noroeste 10 Noroeste 0 960 2.3 99
2019-12-05 10:00:00 -0.9 3 Sudoeste 6 Noroeste 0 959.3 2 98
2019-12-05 09:00:00 -1.2 2 Sudoeste 7 Noroeste 0 958.6 1.6 98
2019-12-05 08:00:00 -0.5 4 Sudeste 7 Sudeste 0 957.7 0.9 99
2019-12-05 07:00:00 -0.9 0 Calma 6 Sudeste 0 957.3 0.9 97
2019-12-05 06:00:00 -0.6 2 Noroeste 7 Norte 0 957 1.5 96
2019-12-05 05:00:00 -0.8 2 Este 6 Sur 0 956.8 1.5 95
2019-12-05 04:00:00 -0.3 0 Calma 5 Noroeste 0 956.4 0.8 94
2019-12-05 03:00:00 -0.1 3 Sudeste 5 Sudeste 0 955.5 0.2 94
2019-12-05 02:00:00 0.3 0 Calma 4 Este 0 955.3 0.6 94
2019-12-05 01:00:00 0.8 0 Calma 4 Este 0 955.6 1.6 94
2019-12-05 00:00:00 1.4 2 Noroeste 4 Sudoeste 0 955.3 1.7 92
2019-12-04 23:00:00 1.9 0 Calma 4 Este 0 954.7 2 91
2019-12-04 22:00:00 2.7 2 Sur 5 Sur 0 954 2 89
2019-12-04 21:00:00 3.4 2 Nordeste 4 Sur 0 953.6 2 87
2019-12-04 20:00:00 4.9 3 Sudeste 5 Norte 0 952.7 1.6 81
2019-12-04 19:00:00 6.4 3 Este 4 Este 0 952 1.2 77
2019-12-04 18:00:00 8.7 2 Este 6 Sudeste 0 951.6 0.8 68
2019-12-04 17:00:00 10.6 5 Sudeste 8 Sur 0 951.1 -0.3 55
2019-12-04 16:00:00 10.7 3 Noroeste 9 Oeste 0 950.8 -1 53
2019-12-04 15:00:00 9.4 3 Oeste 11 Oeste 0 950.8 -1.9 59
2019-12-04 14:00:00 7.9 5 Sudoeste 10 Oeste 0 951.4 -1.5 62
2019-12-04 13:00:00 6.3 4 Oeste 9 Oeste 0 951.8 -1 68
2019-12-04 12:00:00 4.1 4 Noroeste 8 Noroeste 0 952.7 0.5 75
2019-12-04 11:00:00 2.4 2 Oeste 6 Oeste 0 952.9 0.8 83
2019-12-04 10:00:00 0 0 Calma 7 Noroeste 0 952.8 1 91
2019-12-04 09:00:00 -1.7 4 Sudeste 6 Sudeste 0 952.2 0.3 96
2019-12-04 08:00:00 -1.8 2 Sudeste 8 Noroeste 0 952.1 0 93
2019-12-04 07:00:00 -1.4 3 Sur 6 Sur 0 951.8 -0.4 95
2019-12-04 06:00:00 -1.3 3 Este 5 Sudeste 0 951.9 -0.4 91
2019-12-04 05:00:00 -0.8 3 Este 8 Nordeste 0 952.1 -0.5 91
2019-12-04 04:00:00 -0.3 5 Oeste 13 Oeste 0 952.2 -0.6 88
2019-12-04 03:00:00 -0.3 4 Norte 11 Oeste 0 952.3 -0.8 89
2019-12-04 02:00:00 -0.3 4 Noroeste 13 Oeste 0 952.6 -0.5 89
2019-12-04 01:00:00 0.1 3 Norte 11 Sudoeste 0 952.8 -0.3 87
2019-12-04 00:00:00 0.7 7 Oeste 12 Oeste 0 953.1 0.2 86
2019-12-03 23:00:00 1.4 3 Este 11 Noroeste 0 953.1 0.5 82
2019-12-03 22:00:00 1.5 4 Nordeste 9 Nordeste 0 953.1 0.9 79
2019-12-03 21:00:00 2.8 5 Sur 11 Sudeste 0 952.9 1 72
2019-12-03 20:00:00 2.5 4 Sudeste 8 Este 0 952.6 0.6 77
2019-12-03 19:00:00 4.3 2 Este 8 Sudeste 0 952.2 0.1 73
2019-12-03 18:00:00 7.6 4 Sudeste 6 Este 0 951.9 -0.9 59
2019-12-03 17:00:00 10.5 0 Calma 9 Oeste 0 952 -2 44
2019-12-03 16:00:00 10.3 4 Oeste 9 Oeste 0 952.1 -3.1 45
2019-12-03 15:00:00 9.1 4 Oeste 8 Oeste 0 952.8 -3.8 49
2019-12-03 14:00:00 7.2 3 Oeste 9 Noroeste 0 954 -3.1 56
2019-12-03 13:00:00 5 4 Oeste 10 Oeste 0 955.2 -2 68
2019-12-03 12:00:00 3 5 Noroeste 9 Oeste 0 956.6 -0.9 76
2019-12-03 11:00:00 2.1 3 Sudeste 6 Sur 0 957.1 -0.2 78
2019-12-03 10:00:00 0.2 3 Sur 4 Sudeste 0 957.2 0 87
2019-12-03 09:00:00 -2.6 0 Calma 4 Noroeste 0 957.5 0.3 95
2019-12-03 08:00:00 -2.5 0 Calma 4 Este 0 957.3 0.2 94
2019-12-03 07:00:00 -2.1 2 Norte 5 Sudeste 0 957.2 -0.7 94
2019-12-03 06:00:00 -1.9 2 Este 5 Noroeste 0 957.2 -0.8 93
2019-12-03 05:00:00 -1.5 3 Este 5 Este 0 957.1 -1.2 93
2019-12-03 04:00:00 -1 0 Calma 4 Este 0 957.9 -0.8 91
2019-12-03 03:00:00 -0.4 0 Calma 4 Este 0 958 -0.5 90
2019-12-03 02:00:00 0.5 0 Calma 4 Norte 0 958.3 -0.5 85
2019-12-03 01:00:00 1.7 3 Sudeste 10 Oeste 0 958.7 -0.2 81
2019-12-03 00:00:00 4.1 4 Oeste 21 Este 0 958.5 -0.4 69
2019-12-02 23:00:00 4.4 8 Este 15 Este 0 958.8 0.5 62
2019-12-02 22:00:00 3.5 2 Oeste 8 Este 0 958.9 1.1 78
2019-12-02 21:00:00 4.8 3 Sudoeste 8 Nordeste 0 958.9 1.9 77
2019-12-02 20:00:00 5.6 4 Sudeste 9 Nordeste 0 958.3 1.6 74
2019-12-02 19:00:00 7.9 0 Calma 9 Este 0 957.8 1.5 64
2019-12-02 18:00:00 10.3 2 Este 12 Nordeste 0 957 0.5 60
2019-12-02 17:00:00 12.7 8 Sudeste 17 Nordeste 0 956.7 -0.4 45
2019-12-02 16:00:00 13.6 7 Norte 14 Norte 0 956.3 -1.6 44
2019-12-02 15:00:00 12.9 5 Noroeste 9 Oeste 0 956.5 -2.1 54
2019-12-02 14:00:00 10.4 4 Sudoeste 12 Sudoeste 0 957.1 -1.7 64
2019-12-02 13:00:00 8.4 6 Oeste 12 Sur 0 957.9 -0.5 72
2019-12-02 12:00:00 6.2 4 Oeste 8 Noroeste 0 958.6 0.8 79
2019-12-02 11:00:00 3.8 4 Oeste 5 Oeste 0 958.8 1.5 84
2019-12-02 10:00:00 3.1 0 Calma 5 Sudeste 0 958.4 1.8 90
2019-12-02 09:00:00 0.7 2 Este 8 Noroeste 0 957.8 1.8 95
2019-12-02 08:00:00 0.7 3 Sudeste 5 Oeste 0 957.3 1.6 95
2019-12-02 07:00:00 1.4 3 Noroeste 6 Noroeste 0 956.6 1 95
2019-12-02 06:00:00 1.4 3 Sudeste 7 Sudeste 0 956 0.5 93
2019-12-02 05:00:00 2.2 2 Sur 6 Sur 0 955.7 0.4 92
2019-12-02 04:00:00 2.7 4 Sudeste 7 Sudeste 0 955.6 0.6 91
2019-12-02 03:00:00 3.5 2 Este 7 Sudeste 0 955.5 0.9 89
2019-12-02 02:00:00 4.2 4 Sudeste 9 Sur 0 955.3 0.6 87
2019-12-02 01:00:00 5.4 4 Este 15 Oeste 0 955 0.6 82
2019-12-02 00:00:00 6.6 4 Noroeste 14 Oeste 0 954.6 0.7 77
2019-12-01 23:00:00 6.6 3 Sudeste 15 Noroeste 0 954.7 1.4 81
2019-12-01 22:00:00 6.6 4 Noroeste 8 Noroeste 0 954.4 2 78
2019-12-01 21:00:00 8 4 Norte 14 Nordeste 0 953.9 2.5 70
2019-12-01 20:00:00 8.7 6 Nordeste 12 Nordeste 0 953.3 2.8 71
2019-12-01 19:00:00 9.2 2 Oeste 12 Este 0 952.4 2.6 69
2019-12-01 18:00:00 10.3 5 Nordeste 16 Norte 0 951.4 1.4 61
2019-12-01 17:00:00 11.4 4 Norte 19 Noroeste 0 950.5 0.5 61
2019-12-01 16:00:00 12.8 6 Noroeste 18 Norte 0 949.8 -0.3 58
2019-12-01 15:00:00 12.2 4 Sudeste 8 Sudeste 0 950 -0.2 68
2019-12-01 14:00:00 11.4 4 Sur 9 Sudoeste 0 950 0.5 75
2019-12-01 13:00:00 10.2 7 Oeste 10 Sudoeste 0 950.1 1.3 84
2019-12-01 12:00:00 9.7 3 Norte 8 Nordeste 0 950.2 2.3 82
2019-12-01 11:00:00 9.3 3 Sur 7 Sur 0 949.5 2.4 88
2019-12-01 10:00:00 7 4 Sudeste 8 Sudeste 0 948.8 2.6 96
2019-12-01 09:00:00 6.5 3 Este 4 Este 0.2 947.9 1.9 97
2019-12-01 08:00:00 6.6 2 Este 4 Este 0 947.1 0.9 97
2019-12-01 07:00:00 6.7 2 Oeste 6 Oeste 0 946.2 -0.2 96
2019-12-01 06:00:00 6.7 3 Sudoeste 6 Oeste 0.2 946 -0.8 96
2019-12-01 05:00:00 6.9 5 Oeste 18 Este 0.8 946.2 -1.6 94
2019-12-01 04:00:00 7.1 11 Este 22 Este 0.6 946.4 -2.6 87
2019-12-01 03:00:00 7.4 15 Este 26 Este 0 946.8 -2.8 87
2019-12-01 02:00:00 7.4 3 Sur 13 Sudoeste 0.8 947.8 -2.1 90
2019-12-01 01:00:00 7.7 6 Sur 13 Sur 0 949 -1.7 87
2019-12-01 00:00:00 7.5 3 Sudeste 7 Sudeste 0.2 949.6 -1.6 89
2019-11-30 23:00:00 7.2 4 Este 6 Sudeste 0 949.9 -1.7 90
2019-11-30 22:00:00 7.8 2 Este 8 Noroeste 0 950.7 -1.1 86
2019-11-30 21:00:00 9.1 2 Oeste 14 Oeste 0 951.2 -0.8 78
2019-11-30 20:00:00 9.5 6 Oeste 19 Noroeste 0 951.6 -0.1 75
2019-11-30 19:00:00 10.3 8 Oeste 18 Oeste 0 951.8 0.2 69
2019-11-30 18:00:00 10.6 5 Oeste 24 Oeste 0 952 0 71
2019-11-30 17:00:00 11.7 10 Oeste 32 Oeste 0 951.7 -0.6 58
2019-11-30 16:00:00 13 13 Oeste 32 Oeste 0 951.6 -1.2 52
2019-11-30 15:00:00 12.9 12 Oeste 33 Oeste 0 952 -1.9 55
2019-11-30 14:00:00 12.6 12 Oeste 26 Noroeste 0 952.3 -0.7 65
2019-11-30 13:00:00 11 12 Oeste 33 Oeste 0 952.8 -0.3 80
2019-11-30 12:00:00 10.9 14 Oeste 28 Oeste 0.4 953.9 1.8 89
2019-11-30 11:00:00 11.4 10 Oeste 22 Oeste 0 953 1.6 85
2019-11-30 10:00:00 9.5 3 Este 10 Sudoeste 1.2 953.1 1 100
2019-11-30 09:00:00 9.3 7 Oeste 12 Oeste 1.8 952.1 -0.4 99
2019-11-30 08:00:00 9.5 3 Norte 7 Noroeste 0.2 951.4 -1.3 99
2019-11-30 07:00:00 9.2 5 Sudeste 9 Este 2 952.1 -1.7 100
2019-11-30 06:00:00 9.3 2 Sudeste 6 Nordeste 0 952.5 -1.6 99
2019-11-30 05:00:00 9.3 2 Nordeste 6 Este 0.2 952.7 -2.2 99
2019-11-30 04:00:00 9.2 0 Calma 9 Sudeste 0.2 953.8 -1.9 98
2019-11-30 03:00:00 9.3 4 Sudeste 8 Oeste 0.2 954.1 -1.7 99
2019-11-30 02:00:00 9.1 3 Sudeste 5 Noroeste 0.2 954.9 -1.6 99
2019-11-30 01:00:00 9.1 2 Norte 6 Sudoeste 0 955.7 -1.3 98
2019-11-30 00:00:00 9.3 3 Oeste 10 Noroeste 0 955.8 -1.2 98
2019-11-29 23:00:00 9.1 0 Calma 5 Sudeste 0 956.5 -0.4 98
2019-11-29 22:00:00 9.1 3 Este 5 Norte 0 957 0.2 98
2019-11-29 21:00:00 8.8 4 Sudeste 6 Este 0 957 0 99
2019-11-29 20:00:00 8.6 0 Calma 6 Oeste 0 956.9 0.1 98
2019-11-29 19:00:00 8.8 0 Calma 8 Sudeste 0 956.8 0 98
2019-11-29 18:00:00 9.6 4 Sudeste 9 Sudeste 0 957 -0.2 96
2019-11-29 17:00:00 9.6 0 Calma 6 Norte 0 956.8 -0.9 96
2019-11-29 16:00:00 9.7 4 Noroeste 8 Noroeste 0 956.8 -1.4 95
2019-11-29 15:00:00 9.9 2 Sur 11 Oeste 0 957.2 -1.5 93
2019-11-29 14:00:00 10.1 7 Oeste 12 Oeste 0 957.7 -0.7 93
2019-11-29 13:00:00 10.9 5 Oeste 9 Sudoeste 0 958.2 0.5 90
2019-11-29 12:00:00 8.7 5 Este 8 Este 0 958.7 1.5 96
2019-11-29 11:00:00 7.8 4 Sudoeste 9 Norte 0 958.4 1.9 100
2019-11-29 10:00:00 6.1 2 Este 5 Este 0 957.7 1.8 100
2019-11-29 09:00:00 5.8 0 Calma 5 Oeste 0 957.2 2 98
2019-11-29 08:00:00 6.8 2 Oeste 6 Noroeste 0 956.5 2 98
2019-11-29 07:00:00 6.8 4 Sudeste 7 Sudeste 0 955.9 1.3 98
2019-11-29 06:00:00 7.6 3 Oeste 5 Norte 0 955.2 1.2 98
2019-11-29 05:00:00 8.1 3 Sudeste 6 Sur 0 954.5 0.9 97
2019-11-29 04:00:00 9 2 Sudeste 4 Sur 0 954.6 1.4 96
2019-11-29 03:00:00 10.2 0 Calma 9 Oeste 0 954 1.6 96
2019-11-29 02:00:00 10.5 4 Noroeste 9 Oeste 0 953.6 1.5 96
2019-11-29 01:00:00 10.6 4 Oeste 8 Oeste 0 953.2 1.7 95
2019-11-29 00:00:00 11.4 3 Norte 8 Noroeste 0 952.4 1.8 93
2019-11-28 23:00:00 11.8 3 Oeste 11 Noroeste 0 952.1 2.2 92
2019-11-28 22:00:00 11.4 0 Calma 10 Noroeste 0 951.5 2.2 95
2019-11-28 21:00:00 12.1 7 Noroeste 13 Noroeste 0.2 950.6 1.6 95
2019-11-28 20:00:00 11.5 2 Este 7 Nordeste 0.2 949.9 1 96
2019-11-28 19:00:00 11.4 2 Nordeste 5 Este 0.6 949.3 0.4 95
2019-11-28 18:00:00 11.6 2 Este 7 Este 1 949 -0.1 93
2019-11-28 17:00:00 11.9 2 Norte 8 Norte 1.4 948.9 0.1 91
2019-11-28 16:00:00 12.2 4 Noroeste 21 Oeste 0.6 948.9 -0.8 88
2019-11-28 15:00:00 13.5 10 Oeste 30 Oeste 0 949.1 -- 77
2019-11-28 14:00:00 14.8 7 Oeste 33 Oeste 0 948.8 -1.4 70
2019-11-28 13:00:00 14.9 12 Oeste 33 Oeste 0 949.7 -0.2 71
2019-11-28 12:00:00 -- -- -- -- -- -- -- -- --
2019-11-28 11:00:00 12 0 Calma 8 Norte 0 950.2 1 93
2019-11-28 10:00:00 10.5 2 Sudeste 8 Este 0 949.9 1 97
2019-11-28 09:00:00 9.6 3 Este 10 Sur 0 949.6 1 95
2019-11-28 08:00:00 10.1 3 Este 6 Este 0 949.2 0.5 95
2019-11-28 07:00:00 10.6 2 Este 4 Este 0 948.9 0.2 94
2019-11-28 06:00:00 10.9 0 Calma 9 Noroeste 0 948.6 -0.1 93
2019-11-28 05:00:00 10.9 2 Norte 10 Nordeste 0 948.7 -0.3 92
2019-11-28 04:00:00 10.7 3 Norte 9 Norte 0 948.7 -0.5 93
2019-11-28 03:00:00 10.6 3 Norte 13 Sudoeste 0.2 948.7 -0.3 93
2019-11-28 02:00:00 10.4 3 Este 10 Noroeste 0.2 949 0 93
2019-11-28 01:00:00 10.2 3 Nordeste 15 Noroeste 0 949.2 0.4 92
2019-11-28 00:00:00 10.1 6 Noroeste 14 Noroeste 0.2 949 0.5 92
2019-11-27 23:00:00 9.9 5 Oeste 19 Oeste 0.6 949 0.6 91
2019-11-27 22:00:00 10.3 9 Oeste 23 Oeste 0 948.8 0.4 86
2019-11-27 21:00:00 10.6 8 Oeste 30 Oeste 0 948.5 0.7 83
2019-11-27 20:00:00 10.1 7 Oeste 17 Oeste 0.4 948.4 0.9 87
2019-11-27 19:00:00 10.8 5 Oeste 28 Oeste 0 948.4 1.3 81
2019-11-27 18:00:00 11 13 Oeste 30 Oeste 0 947.8 0.6 77
2019-11-27 17:00:00 10.9 8 Oeste 26 Oeste 0.6 947.5 -0.1 85
2019-11-27 16:00:00 11.3 13 Oeste 34 Oeste 0 947.1 -0.9 80
2019-11-27 15:00:00 11.1 10 Oeste 23 Oeste 0 947.2 -0.8 82
2019-11-27 14:00:00 11.6 10 Oeste 28 Oeste 0 947.6 -0.4 80
2019-11-27 06:00:00 10.8 10 Oeste 26 Oeste 0.2 946.2 0.7 79
2019-11-27 05:00:00 10.9 9 Oeste 34 Oeste 0 946 1.2 75
2019-11-27 04:00:00 10.7 13 Oeste 27 Oeste 0 945.7 0.8 76
2019-11-27 03:00:00 10.4 10 Oeste 36 Oeste 0 945.5 0.9 77
2019-11-27 02:00:00 10.5 16 Oeste 37 Oeste 0 944.8 0.6 73
2019-11-27 01:00:00 10.2 14 Oeste 32 Oeste 0 944.9 0.7 73
2019-11-27 00:00:00 10.1 14 Oeste 34 Oeste 0 944.6 0.8 75
2019-11-26 23:00:00 10.5 12 Oeste 27 Oeste 0 944.2 1.4 71
2019-11-26 22:00:00 10.7 8 Sudoeste 26 Oeste 0 944.2 2.7 75
2019-11-26 21:00:00 10.7 10 Oeste 30 Sudoeste 0 943.8 2.8 77
2019-11-26 20:00:00 11 10 Oeste 35 Oeste 2.2 942.8 2.6 80
2019-11-26 19:00:00 11.9 9 Oeste 36 Noroeste 0.8 941.5 1 82
2019-11-26 18:00:00 12.5 9 Noroeste 48 Oeste 1.2 941 -0.6 86
2019-11-26 17:00:00 16 17 Oeste 47 Sudoeste 0 940.2 -2.9 60
2019-11-26 16:00:00 17.1 12 Oeste 50 Oeste 0 940.5 -- 48
2019-11-26 15:00:00 16.6 13 Oeste 48 Oeste 0 941.6 -3.9 47
2019-11-26 14:00:00 16.5 14 Sudoeste -- -- -- 943.1 -3.3 51
2019-11-26 13:00:00 -- -- -- -- -- -- -- -- --
2019-11-26 12:00:00 15.3 8 Oeste 16 Sudoeste 0 945.5 -1.2 63
2019-11-26 11:00:00 12.6 2 Norte 7 Nordeste 0 946.4 -0.4 90
2019-11-26 10:00:00 10.4 2 Este -- -- -- 946.6 -0.3 95
2019-11-26 09:00:00 9 2 Noroeste 7 Noroeste 0 946.7 -0.6 98
2019-11-26 08:00:00 9 3 Sudoeste 7 Oeste 0.2 946.8 -- 98
2019-11-26 07:00:00 8.9 2 Este 8 Sudoeste 0.4 946.9 -1.7 97
2019-11-26 06:00:00 8.9 3 Sudeste 6 Sur 0.2 947.3 -2 96
2019-11-26 05:00:00 -- -- -- -- -- -- -- -- --
2019-11-26 04:00:00 9.3 5 Noroeste 9 Oeste 0 948.6 -1.8 91
2019-11-26 03:00:00 9.3 4 Oeste 8 Oeste 0 949.3 -2 90
2019-11-26 02:00:00 9.4 3 Sur 7 Oeste 0 950.1 -1.5 90
2019-11-26 01:00:00 9.8 3 Norte 10 Sudeste 0 950.4 -1.5 88
2019-11-26 00:00:00 9.1 2 Sur 5 Sudeste 0 951.3 -0.5 92
2019-11-25 23:00:00 9.6 2 Sudeste 8 Sur 0 951.6 -0.4 89
2019-11-25 22:00:00 9.9 4 Sudeste 10 Sudeste 0 951.9 -0.2 89
2019-11-25 21:00:00 10.1 4 Sudeste 9 Este 0 951.8 0.3 88
2019-11-25 20:00:00 10.8 3 Sudeste 5 Este 0 952 0.9 86
2019-11-25 19:00:00 12.9 3 Noroeste 12 Oeste 0 952.1 1.3 77
2019-11-25 18:00:00 13.4 0 Calma -- -- -- 951.5 0.4 77
2019-11-25 17:00:00 14.6 7 Oeste 14 Noroeste 0 951.1 0 68
2019-11-25 16:00:00 14.7 8 Noroeste 17 Oeste 0 950.8 -0.6 66
2019-11-25 15:00:00 14.5 9 Oeste 21 Noroeste 0 951.1 -0.4 67
2019-11-25 14:00:00 14.2 14 Oeste 27 Noroeste 0 951.1 0.2 69
2019-11-25 13:00:00 13.6 10 Oeste 30 Oeste 0 951.4 1.1 71
2019-11-25 12:00:00 13.3 14 Oeste 32 Oeste 0 951.5 1.5 74
2019-11-25 11:00:00 12.5 8 Oeste 17 Oeste 0 950.9 1.4 79
2019-11-25 10:00:00 11.8 6 Oeste 29 Noroeste 0 950.3 1.4 79
2019-11-25 09:00:00 11.5 11 Oeste 22 Oeste 0 950 1.9 81
2019-11-25 08:00:00 11.2 6 Oeste 20 Oeste 0 949.5 1.9 85
2019-11-25 07:00:00 11.5 10 Oeste 24 Oeste 0 948.9 1 87
2019-11-25 06:00:00 11.5 8 Noroeste 17 Oeste 0 948.1 0.4 87
2019-11-25 05:00:00 11.3 3 Noroeste 23 Oeste 0 947.6 0.2 88
2019-11-25 04:00:00 11.5 12 Oeste 26 Oeste 0 947.9 0.1 86
2019-11-25 03:00:00 9.4 4 Noroeste 14 Noroeste 0 947.7 -0.2 97
2019-11-25 02:00:00 7.9 3 Sudeste 11 Noroeste 0 947.4 -0.4 99
2019-11-25 01:00:00 8.2 3 Noroeste 7 Noroeste 0 947.8 0.2 99
2019-11-25 00:00:00 8.3 5 Sur 9 Oeste 0.6 947.9 0 99
2019-11-24 23:00:00 8.2 4 Sur 6 Noroeste 1.4 947.8 0.2 98
2019-11-24 22:00:00 8.2 2 Sudeste 8 Sudeste 0.6 947.6 -0.1 98
2019-11-24 21:00:00 8.2 6 Sur 13 Sudeste 1.2 947.9 -0.4 97
2019-11-24 20:00:00 8.3 5 Sur 16 Este 1.2 947.6 -1.8 95
2019-11-24 19:00:00 8.3 2 Sur 12 Oeste 0.4 947.7 -2 96
2019-11-24 18:00:00 8.6 3 Oeste 9 Sudeste 0.2 948.3 -1.9 92
2019-11-24 17:00:00 8.6 5 Oeste 9 Oeste 0 949.4 -1.4 92
2019-11-24 16:00:00 8.7 5 Sudeste 13 Este 0.2 949.7 -1.5 88
2019-11-24 15:00:00 9.4 4 Nordeste 7 Este 0 950.2 -2 82
2019-11-24 14:00:00 10 0 Calma 10 Oeste 0 950.8 -2.2 72
2019-11-24 13:00:00 10 5 Norte 12 Noroeste 0 951.2 -1.1 71
2019-11-24 12:00:00 8.3 4 Sudeste 6 Sudeste 0 952.2 0.2 84
2019-11-24 11:00:00 7.6 2 Nordeste 5 Sudoeste 0 953 1.3 87
2019-11-24 10:00:00 6.9 0 Calma 5 Este 0 952.3 0.9 90
2019-11-24 09:00:00 6.4 2 Norte 5 Norte 0 952 0.4 88
2019-11-24 08:00:00 6 2 Nordeste 4 Norte 0 951.7 -0.4 91
2019-11-24 07:00:00 6.4 0 Calma 5 Este 0 951.4 0.1 87
2019-11-24 06:00:00 7 3 Norte 9 Norte 0 951.6 0.6 84
2019-11-24 05:00:00 6.9 5 Noroeste 10 Oeste 0 952.1 1.4 86
2019-11-24 04:00:00 7.2 4 Oeste 15 Oeste 0 951.3 0.6 85
2019-11-24 03:00:00 7.4 7 Oeste 14 Oeste 0 951 0.9 86
2019-11-24 02:00:00 7.1 4 Oeste 9 Sudoeste 0 950.7 0.8 88
2019-11-24 01:00:00 7.1 4 Oeste 16 Oeste 0 950.7 1.3 88
2019-11-24 00:00:00 7 8 Oeste 17 Noroeste 0 950.1 0.8 91
2019-11-23 23:00:00 7.1 7 Oeste 24 Oeste 0 949.9 1.2 89
2019-11-23 22:00:00 7.8 12 Oeste 25 Oeste 0 949.4 1.3 86
2019-11-23 21:00:00 7.9 11 Oeste 22 Oeste 0 949.3 2 83
2019-11-23 20:00:00 7.8 10 Oeste 20 Oeste 0 948.7 2.3 88
2019-11-23 19:00:00 7.9 7 Oeste -- -- -- 948.1 2.5 88
2019-11-23 18:00:00 7.9 6 Oeste 19 Noroeste 0.4 947.3 1.7 85
2019-11-23 17:00:00 8.9 4 Noroeste 18 Oeste 0.2 946.4 1.6 84
2019-11-23 16:00:00 9.2 7 Sudoeste -- -- -- 945.6 1.2 77
2019-11-23 15:00:00 8.7 11 Noroeste -- -- -- 945.6 2 80
2019-11-23 14:00:00 9.1 10 Oeste -- -- -- 944.8 2.2 75
2019-11-23 13:00:00 8.5 10 Noroeste 32 Oeste 0.2 944.4 2.4 80
2019-11-23 12:00:00 7.9 7 Oeste 37 Oeste 0.2 943.6 3.5 84
2019-11-23 11:00:00 7.9 11 Oeste 27 Oeste 0 942.6 3.8 79
2019-11-23 10:00:00 7.6 12 Oeste -- -- -- 942 4.5 80
2019-11-23 09:00:00 7.3 14 Oeste 31 Oeste 0 940.1 3.7 77
2019-11-23 08:00:00 6.3 15 Oeste 34 Oeste 0 938.8 3.8 85
2019-11-23 07:00:00 6.4 17 Oeste 37 Oeste 0 937.5 3.6 80
2019-11-23 06:00:00 6.4 18 Oeste 40 Oeste 0 936.4 2.7 80
2019-11-23 05:00:00 6.5 22 Oeste -- -- -- 935 2.8 80
2019-11-23 04:00:00 6.3 17 Noroeste 37 Oeste 0 933.9 2.8 78
2019-11-23 03:00:00 6.3 16 Oeste 32 Oeste 0.6 933.7 4.3 93
2019-11-23 02:00:00 6.1 10 Oeste 27 Oeste 2.6 932.2 4.5 92
2019-11-23 01:00:00 6.5 12 Oeste 33 Oeste 2.8 931.1 4.2 90
2019-11-23 00:00:00 7.5 13 Oeste 33 Oeste 1.8 929.4 3.5 91
2019-11-22 23:00:00 8.2 14 Oeste 38 Noroeste 1.4 927.7 2.4 90
2019-11-22 22:00:00 8.8 15 Oeste 32 Oeste 0.8 926.9 1.4 86
2019-11-22 21:00:00 9.3 13 Oeste 39 Oeste 0 925.9 0.8 83
2019-11-22 20:00:00 9.5 15 Oeste 33 Oeste 0.2 925.3 -0.2 85
2019-11-22 19:00:00 8.5 5 Oeste 14 Norte 1.4 925.5 0.1 91
2019-11-22 18:00:00 8.7 5 Noroeste 14 Oeste 2 925.1 -0.2 88
2019-11-22 17:00:00 9.1 6 Oeste 39 Oeste 0.8 925.5 0.2 84
2019-11-22 16:00:00 9.9 6 Noroeste 32 Oeste 1 925.4 -0.2 84
2019-11-22 15:00:00 11.6 14 Oeste 35 Sudoeste 0 925.3 -1.5 74
2019-11-22 14:00:00 11.5 14 Oeste 33 Sudoeste 0.4 925.3 -2.1 81
2019-11-22 13:00:00 10.3 10 Noroeste 19 Noroeste 1 925.6 -1.5 93
2019-11-22 12:00:00 7.6 10 Sudeste 19 Sudeste 1.6 926.8 -2.2 100
2019-11-22 11:00:00 5.7 6 Oeste 20 Noroeste 3.6 927.4 -3.6 100
2019-11-22 10:00:00 5.4 3 Oeste 12 Oeste 2 927.1 -5 99
2019-11-22 09:00:00 5.2 5 Oeste 11 Oeste 1 929 -4.5 99
2019-11-22 08:00:00 4.9 5 Oeste 12 Noroeste 0.4 931 -4.5 99
2019-11-22 07:00:00 4.8 3 Sudeste 14 Oeste 2.4 932.1 -4.7 99
2019-11-22 06:00:00 5 6 Oeste 11 Noroeste 2 933.5 -4.7 97
2019-11-22 05:00:00 5.1 2 Oeste 8 Oeste 1.8 935.5 -4 96
2019-11-22 04:00:00 5.3 4 Sur 10 Sur 0.2 936.8 -3.6 92
2019-11-22 03:00:00 5.1 4 Sudeste 7 Este 0.2 938.2 -3.3 94
2019-11-22 02:00:00 5.2 4 Noroeste 9 Noroeste 0 939.5 -2.4 91
2019-11-22 01:00:00 5.3 6 Sur 11 Sur 0 940.4 -2.3 89
2019-11-22 00:00:00 5.4 2 Este 5 Nordeste 0 941.5 -1.3 92
2019-11-21 23:00:00 5.8 0 Calma 10 Sudeste 0 941.9 -1 90
2019-11-21 22:00:00 5.6 0 Calma 8 Sudeste 0 942.7 -0.5 92
2019-11-21 21:00:00 6.4 4 Sudoeste 9 Este 0 942.8 -0.4 89
2019-11-21 20:00:00 6.9 6 Este 14 Sur 0 942.9 0.1 85
2019-11-21 19:00:00 7.1 6 Este 12 Este 0 943.2 0.3 89
2019-11-21 18:00:00 8.5 3 Nordeste 21 Noroeste 0 943.2 -0.2 81
2019-11-21 17:00:00 10.6 5 Oeste 8 Sur 0 942.8 -0.9 64
2019-11-21 16:00:00 11.2 5 Sur 15 Oeste 0 942.9 -1.1 61
2019-11-21 15:00:00 10.3 7 Sudoeste 16 Oeste 0 943.4 -1.1 73
2019-11-21 14:00:00 9.7 8 Noroeste 16 Oeste 0 943.7 -0.7 73
2019-11-21 13:00:00 9 6 Noroeste 14 Noroeste 0 944 -0.2 75
2019-11-21 12:00:00 8.2 4 Noroeste 8 Noroeste 0 944.5 0.8 83
2019-11-21 11:00:00 6.5 2 Oeste -- -- -- 944.4 0.9 95
2019-11-21 10:00:00 4.8 4 Oeste 8 Norte 0 944.2 1.1 98
2019-11-21 09:00:00 3.6 3 Este 5 Sudeste 0 943.7 0.7 96
2019-11-21 08:00:00 -- -- -- -- -- -- -- -- --
2019-11-21 07:00:00 -- -- -- -- -- -- -- -- --
2019-11-21 06:00:00 -- -- -- -- -- -- -- -- --
2019-11-21 05:00:00 -- -- -- -- -- -- -- -- --
2019-11-21 04:00:00 -- -- -- -- -- -- -- -- --
2019-11-21 03:00:00 -- -- -- -- -- -- -- -- --
2019-11-21 02:00:00 -- -- -- -- -- -- -- -- --
2019-11-21 01:00:00 -- -- -- -- -- -- -- -- --
2019-11-21 00:00:00 -- -- -- -- -- -- -- -- --
2019-11-20 23:00:00 -- -- -- -- -- -- -- -- --
2019-11-20 22:00:00 -- -- -- -- -- -- -- -- --
2019-11-20 21:00:00 7.1 2 Nordeste 5 Nordeste 0 943.1 0.5 94
2019-11-20 20:00:00 7.6 3 Este 5 Este 0 943 0.8 94
2019-11-20 19:00:00 8 0 Calma 10 Oeste 0.2 942.8 -- 93
2019-11-20 18:00:00 8.6 9 Oeste 17 Oeste 0 942.6 -- 89
2019-11-20 17:00:00 9.7 4 Sudeste 8 Este 0 942.2 -- 82
2019-11-20 16:00:00 -- -- -- -- -- -- -- -- --
2019-11-20 15:00:00 -- -- -- -- -- -- -- -- --
2019-11-20 14:00:00 -- -- -- -- -- -- -- -- --
2019-11-20 13:00:00 -- -- -- -- -- -- -- -- --
2019-11-20 12:00:00 6.1 4 Oeste 7 Oeste 0 945.5 -0.3 96
2019-11-20 11:00:00 5.7 0 Calma 7 Noroeste 0.2 945.6 -0.4 98
2019-11-20 10:00:00 5.3 3 Noroeste 6 Oeste 0.4 945.8 -0.6 98
2019-11-20 09:00:00 5.2 3 Oeste 5 Oeste 0.2 945.8 -0.9 98
2019-11-20 08:00:00 5.3 3 Oeste 7 Oeste 1 946 -1.2 98
2019-11-20 07:00:00 5.3 0 Calma 4 Oeste 0.2 946.4 -1.4 97
2019-11-20 06:00:00 5.3 0 Calma 3 Este 0.4 946.7 -1.7 97
2019-11-20 05:00:00 5.2 0 Calma 3 Noroeste 0.4 947.2 -1.8 97
2019-11-20 04:00:00 5.1 2 Este 6 Este 0.4 947.8 -2 97
2019-11-20 03:00:00 5 3 Este 5 Este 0.4 948.4 -1.6 97
2019-11-20 02:00:00 4.9 0 Calma 4 Sudeste 0.2 949 -1.6 96
2019-11-20 01:00:00 4.7 3 Este 6 Oeste 0.6 949.8 -1.4 96
2019-11-20 00:00:00 4.9 2 Nordeste 7 Oeste 0.2 950 -1.3 96
2019-11-19 23:00:00 5 0 Calma 8 Este 1.2 950.6 -0.8 92
2019-11-19 22:00:00 5.4 3 Oeste 6 Noroeste 0.4 951.2 -0.2 92
2019-11-19 21:00:00 5.7 4 Noroeste 7 Noroeste 0 951.3 -0.1 88
2019-11-19 20:00:00 5.7 0 Calma 4 Este 0 951.4 -0.4 87
2019-11-19 19:00:00 5.7 0 Calma 5 Este 0 951.4 -0.8 86
2019-11-19 18:00:00 5.8 2 Este 8 Noroeste 0 951.4 -1.4 84
2019-11-19 17:00:00 5.9 2 Oeste 4 Nordeste 0 951.8 -1.7 84
2019-11-19 16:00:00 5.3 3 Noroeste 8 Oeste 0 952.2 -2.2 86
2019-11-19 15:00:00 4.4 4 Noroeste 6 Oeste 0 952.8 -2.5 87
2019-11-19 14:00:00 4.1 4 Oeste 9 Oeste 0 953.5 -2.4 87
2019-11-19 13:00:00 3.7 3 Oeste 10 Oeste 0 954.4 -1.5 87
2019-11-19 12:00:00 2.1 2 Sudoeste 8 Sudeste 0 955.3 -0.6 96
2019-11-19 11:00:00 0.7 3 Noroeste 7 Oeste 0 955.9 0.1 100
2019-11-19 10:00:00 0 2 Nordeste 5 Nordeste 0 955.9 0.2 100
2019-11-19 09:00:00 -0.2 0 Calma 6 Este 0 955.9 0.2 100
2019-11-19 08:00:00 -0.1 3 Sudeste 5 Sudeste 0 955.8 -0.1 99
2019-11-19 07:00:00 -0.3 3 Noroeste 6 Oeste 0 955.7 -0.4 99
2019-11-19 06:00:00 -0.7 0 Calma 4 Este 0 955.7 -0.6 96
2019-11-19 05:00:00 -0.5 0 Calma 6 Noroeste 0 955.9 -0.3 97
2019-11-19 04:00:00 -0.5 0 Calma 3 Oeste 0 956.1 -0.3 96
2019-11-19 03:00:00 -0.2 2 Este 4 Este 0 956.3 -0.5 96
2019-11-19 02:00:00 0.3 2 Este 4 Este 0 956.2 -0.4 95
2019-11-19 01:00:00 0.8 0 Calma 4 Sur 0 956.4 0 94
2019-11-19 00:00:00 1.5 2 Nordeste 6 Sur 0 956.8 -0.1 92
2019-11-18 23:00:00 2.7 3 Este 10 Sudeste 0 956.6 0.4 88
2019-11-18 22:00:00 4.2 6 Sudeste 13 Este 0 956.4 0.4 85
2019-11-18 21:00:00 4.3 4 Este 10 Sur 0 956.9 1.3 86
2019-11-18 20:00:00 5.7 4 Este 6 Este 0 956.2 0.8 80
2019-11-18 19:00:00 7.2 0 Calma 10 Nordeste 0 956 0.8 72
2019-11-18 18:00:00 9.2 5 Nordeste 14 Nordeste 0 955.6 0.2 61
2019-11-18 17:00:00 11.3 5 Noroeste 14 Noroeste 0 955.4 0.1 57
2019-11-18 16:00:00 11.5 7 Noroeste 18 Oeste 0 955.2 -0.5 56
2019-11-18 15:00:00 10.9 9 Oeste 17 Noroeste 0 955.4 -1 60
2019-11-18 14:00:00 11.6 7 Oeste 17 Noroeste 0 955.3 -1.2 56
2019-11-18 13:00:00 10.6 7 Oeste 22 Oeste 0 955.7 -0.4 63
2019-11-18 12:00:00 9.3 8 Oeste 17 Oeste 0 956.4 0.8 71
2019-11-18 11:00:00 7.7 6 Oeste 12 Oeste 0 956.5 1.8 81
2019-11-18 10:00:00 5.6 2 Sudeste 5 Noroeste 0 956.1 -- 90
2019-11-18 09:00:00 3.7 0 Calma 5 Oeste 0 955.6 2.1 94
2019-11-18 08:00:00 3.2 2 Este -- -- -- 954.7 1.5 95
2019-11-18 07:00:00 -- -- -- -- -- -- -- -- --
2019-11-18 06:00:00 3.7 0 Calma 6 Sur 0 953.5 1.4 92
2019-11-18 05:00:00 4.5 0 Calma 4 Este 0 953.2 1.1 91
2019-11-18 04:00:00 4.7 3 Sudeste 8 Noroeste 0 952.5 0.5 90
2019-11-18 03:00:00 5 3 Sur 9 Oeste 0 952.1 0.9 87
2019-11-18 02:00:00 5.4 4 Oeste 10 Oeste 0 952.1 1.2 87
2019-11-18 01:00:00 4.6 2 Nordeste 8 Este 0 952 1.6 92
2019-11-18 00:00:00 4.9 3 Este 10 Noroeste 0 951.2 0.8 88
2019-11-17 23:00:00 6.3 6 Oeste 21 Oeste 0 950.9 0.8 85
2019-11-17 22:00:00 6.3 8 Oeste 18 Oeste 0 950.4 0.6 88
2019-11-17 21:00:00 6.8 9 Oeste 17 Oeste 0 950.4 0.4 87
2019-11-17 20:00:00 7.2 9 Oeste 22 Oeste 0.2 950.1 0.6 87
2019-11-17 19:00:00 7.7 7 Oeste 24 Oeste 0 949.8 0.2 77
2019-11-17 18:00:00 8.3 13 Noroeste 26 Noroeste 0.2 950 0.9 76
2019-11-17 17:00:00 9.6 11 Oeste 31 Oeste 0 949.5 0.4 69
2019-11-17 16:00:00 9.4 14 Noroeste 30 Oeste 0 949.6 -0.2 69
2019-11-17 15:00:00 9.9 16 Oeste 34 Noroeste 0 949.1 -1.1 73
2019-11-17 14:00:00 9.4 12 Noroeste 22 Oeste 0 949.1 -0.9 82
2019-11-17 13:00:00 8.2 5 Sudeste 9 Sudeste 0 949.8 -0.4 97
2019-11-17 12:00:00 7.4 3 Oeste 8 Noroeste 0.2 950.2 0.1 98
2019-11-17 11:00:00 6.3 3 Sudeste 6 Noroeste 0.2 950 -0.1 98
2019-11-17 10:00:00 5.7 3 Norte 6 Nordeste 0.6 950.2 0.3 98
2019-11-17 09:00:00 5.5 2 Sudeste 5 Sudoeste 1 950.1 -0.4 98
2019-11-17 08:00:00 5.4 2 Noroeste 8 Norte 2.2 950.1 -0.9 97
2019-11-17 07:00:00 5.4 2 Noroeste 5 Norte 0.2 949.9 -1.4 96
2019-11-17 06:00:00 5.5 3 Noroeste 5 Norte 0 950.5 -1.3 96
2019-11-17 05:00:00 5.6 0 Calma 4 Nordeste 0 951 -1.4 95
2019-11-17 04:00:00 5.7 0 Calma 6 Noroeste 0.2 951.3 -1.9 94
2019-11-17 03:00:00 5.7 3 Sudeste 5 Sudeste 0 951.8 -1.5 92
2019-11-17 02:00:00 5.7 4 Sudeste 5 Sur 0 952.4 -1.1 91
2019-11-17 01:00:00 5.7 2 Sudeste 4 Este 0 953.2 -0.5 90
2019-11-17 00:00:00 5.7 3 Noroeste 10 Nordeste 0 953.3 -0.7 89
2019-11-16 23:00:00 5.6 4 Norte 12 Nordeste 0 953.5 -0.2 88
2019-11-16 22:00:00 5.7 6 Nordeste 12 Nordeste 0 953.7 -0.1 88
2019-11-16 21:00:00 6 3 Norte 9 Nordeste 0 954 0 86
2019-11-16 20:00:00 6.2 2 Norte 12 Noroeste 0 953.7 -0.2 81
2019-11-16 19:00:00 6.3 3 Noroeste 8 Noroeste 0 953.8 0 78
2019-11-16 18:00:00 6.4 4 Oeste 13 Oeste 0 954 0.5 79
2019-11-16 17:00:00 6.5 5 Oeste 14 Noroeste 0 953.9 0.1 79
2019-11-16 16:00:00 6.7 8 Oeste 24 Noroeste 0.2 953.8 0 77
2019-11-16 15:00:00 7.7 6 Oeste 21 Noroeste 0 953.5 -0.9 77
2019-11-16 14:00:00 7.3 10 Oeste 22 Noroeste 0 953.8 -0.2 76
2019-11-16 13:00:00 7.7 10 Oeste 22 Noroeste 0 953.8 -- 69
2019-11-16 12:00:00 6.9 14 Oeste 25 Oeste 0 954.4 -- 78
2019-11-16 11:00:00 6.1 12 Oeste -- -- -- 954 1.4 81
2019-11-16 10:00:00 -- -- -- -- -- -- -- -- --
2019-11-16 09:00:00 -- -- -- -- -- -- -- -- --
2019-11-16 08:00:00 2.7 0 Calma -- -- -- 952.6 -- 93
2019-11-16 07:00:00 -- -- -- -- -- -- -- -- --
2019-11-16 06:00:00 -- -- -- -- -- -- -- -- --
2019-11-16 05:00:00 -- -- -- -- -- -- -- -- --
2019-11-16 04:00:00 2.6 3 Noroeste 8 Noroeste 0 951.3 1 91
2019-11-16 03:00:00 3 3 Noroeste 10 Oeste 0 950.9 0.7 90
2019-11-16 02:00:00 3.3 3 Noroeste 12 Oeste 0 950.5 1.2 92
2019-11-16 01:00:00 3.4 4 Oeste 9 Oeste 0.6 950.3 1.8 91
2019-11-16 00:00:00 3.6 3 Nordeste 12 Noroeste 0 950.2 2.3 88
2019-11-15 23:00:00 3.7 4 Oeste 11 Oeste 0 949.3 1.9 85
2019-11-15 22:00:00 3.5 4 Oeste 15 Sudoeste 0 948.5 1.5 88
2019-11-15 21:00:00 3.8 5 Oeste 15 Noroeste 0 947.9 1.8 90
2019-11-15 20:00:00 3.6 6 Oeste 18 Oeste 1 947.4 1.6 91
2019-11-15 19:00:00 4.3 5 Noroeste 17 Noroeste 0.6 947 1.7 90
2019-11-15 18:00:00 4.5 5 Oeste 29 Oeste 0.4 946.1 0.7 89
2019-11-15 17:00:00 5.5 14 Oeste 36 Noroeste 0.2 945.8 -0.1 82
2019-11-15 16:00:00 6.9 15 Oeste 33 Oeste 0 945.3 -1.1 69
2019-11-15 15:00:00 7.5 17 Oeste 32 Noroeste 0 945.4 -1.4 68
2019-11-15 14:00:00 5.8 15 Oeste 31 Noroeste 0 945.9 -0.3 77
2019-11-15 13:00:00 5.4 13 Oeste 28 Noroeste 0 946.4 -- 80
2019-11-15 12:00:00 4.9 13 Noroeste 31 Oeste 0 946.8 1 81
2019-11-15 11:00:00 5 10 Oeste 23 Oeste 0 946.2 0.8 82
2019-11-15 10:00:00 4.1 10 Oeste 22 Noroeste 0 -- -- 81
2019-11-15 09:00:00 3.2 8 Oeste 16 Oeste 0 945.8 1 85
2019-11-15 08:00:00 3.3 8 Oeste 23 Noroeste 0 945.4 0.8 90
2019-11-15 07:00:00 3.1 8 Oeste 17 Oeste 0 945 0.6 91
2019-11-15 06:00:00 3 9 Oeste 21 Noroeste 0.8 944.8 0.4 91
2019-11-15 05:00:00 3.2 8 Oeste -- -- -- 944.6 0.5 93
2019-11-15 04:00:00 3.1 5 Oeste 21 Oeste 0.2 944.4 0.2 92
2019-11-15 03:00:00 2.8 6 Oeste 27 Noroeste 1.4 944.4 0.1 94
2019-11-15 02:00:00 3.9 9 Oeste 23 Oeste 0 944.1 0.3 89
2019-11-15 01:00:00 4 11 Oeste -- -- -- 944.2 1.3 91
2019-11-15 00:00:00 4.5 7 Noroeste 18 Oeste 2.2 944.3 2.5 91
2019-11-14 23:00:00 4.5 9 Oeste 32 Noroeste 2.2 943.8 2.3 90
2019-11-14 22:00:00 4.5 16 Oeste 36 Oeste 2.8 942.9 2.1 90
2019-11-14 21:00:00 4.7 17 Oeste 35 Noroeste 1.2 941.8 1.6 90
2019-11-14 20:00:00 4.3 5 Oeste 24 Noroeste 2.6 941.5 2.1 93
2019-11-14 19:00:00 4.7 13 Oeste 30 Oeste 1 940.8 2.8 90
2019-11-14 18:00:00 5.2 12 Oeste 22 Oeste 1.2 940.2 2.9 88
2019-11-14 17:00:00 5.8 13 Noroeste 45 Noroeste 0.6 939.4 2.3 85
2019-11-14 16:00:00 6.9 7 Oeste 28 Oeste 0.2 938 -0.1 85
2019-11-14 15:00:00 5.2 7 Noroeste 27 Oeste 1.4 937.3 -1.8 91
2019-11-14 14:00:00 5.5 12 Oeste 28 Oeste 0.8 937.1 -3 92
2019-11-14 13:00:00 3.7 10 Oeste 30 Sudoeste 2.2 938.1 -3.6 91
2019-11-14 12:00:00 4.7 13 Oeste 39 Sudoeste 1.6 939.1 -3.6 85
2019-11-14 11:00:00 4.6 12 Oeste 26 Oeste 0 940.1 -2.8 82
2019-11-14 10:00:00 4.3 8 Sudoeste 24 Sudoeste 0 941.7 -2 82
2019-11-14 09:00:00 3.3 7 Oeste 18 Oeste 0 942.7 -1.1 89
2019-11-14 08:00:00 3.5 6 Oeste 14 Sudoeste 1.2 942.9 -1.2 90
2019-11-14 07:00:00 4.2 6 Noroeste 17 Noroeste 0.2 943.7 -0.6 88
2019-11-14 06:00:00 4.7 9 Oeste 19 Sudoeste 0 943.8 -1.1 77
2019-11-14 05:00:00 4.3 8 Oeste 33 Oeste 0.2 944.1 -0.1 84
2019-11-14 04:00:00 5.6 10 Oeste 23 Sudoeste 0 944.3 -0.4 78
2019-11-14 03:00:00 5.9 12 Noroeste 49 Noroeste 0.2 944.9 -0.2 84
2019-11-14 02:00:00 7.4 15 Noroeste 43 Noroeste 0.2 944.2 -1.7 85
2019-11-14 01:00:00 8.4 17 Noroeste 32 Noroeste 2 944.7 -2.8 81
2019-11-14 00:00:00 8.7 13 Oeste 35 Oeste 0.6 945.1 -3.3 89
2019-11-13 23:00:00 9.8 15 Oeste 38 Sudoeste 0 945.9 -3.5 75
2019-11-13 22:00:00 9.6 12 Oeste 31 Sudoeste 0 947.5 -2.9 76
2019-11-13 21:00:00 10.4 10 Oeste 28 Oeste 0 948.4 -2.2 69
2019-11-13 20:00:00 10.6 8 Oeste 19 Oeste 0 949.4 -1.3 71
2019-11-13 19:00:00 10.7 9 Oeste 27 Oeste 0 950.4 -0.8 72
2019-11-13 18:00:00 11.4 9 Oeste 25 Oeste 0 950.6 -0.8 67
2019-11-13 17:00:00 12.1 11 Oeste 30 Oeste 0 950.7 -0.8 62
2019-11-13 16:00:00 12.4 14 Oeste 31 Noroeste 0 951.2 -1 68
2019-11-13 15:00:00 12.6 12 Oeste 28 Oeste 0 951.4 0 70
2019-11-13 14:00:00 13.3 18 Noroeste 35 Noroeste 0 951.5 0.5 67
2019-11-13 13:00:00 12.4 17 Oeste 34 Oeste 0 952.2 1.2 66
2019-11-13 12:00:00 12.8 9 Oeste 20 Oeste 0 951.4 1.1 68
2019-11-13 11:00:00 12.7 7 Sudoeste 16 Sudoeste 0 951 1.9 77
2019-11-13 10:00:00 10.9 3 Oeste 4 Oeste 0 951 2.9 85
2019-11-13 09:00:00 8.1 0 Calma 6 Nordeste 0 950.3 3.5 96
2019-11-13 08:00:00 8.4 3 Noroeste 10 Oeste 0 949.1 3.5 93
2019-11-13 07:00:00 9.9 2 Oeste 14 Oeste 0 948.1 3 88
2019-11-13 06:00:00 10.8 2 Oeste 18 Noroeste 0 946.8 2.9 89
2019-11-13 05:00:00 11.2 6 Oeste 19 Oeste 0 945.6 2.3 89
2019-11-13 04:00:00 11.9 4 Norte 15 Noroeste 0 945.1 1.2 95
2019-11-13 03:00:00 12 3 Este 27 Este 3 943.9 0.2 97
2019-11-13 02:00:00 11.2 3 Este -- -- -- 943.3 -1.3 99
2019-11-13 01:00:00 10.6 3 Oeste 8 Noroeste 1.4 943.9 -1.4 99
2019-11-13 00:00:00 10.2 0 Calma 5 Este 2.8 943.7 -2.3 99
2019-11-12 23:00:00 10 0 Calma 8 Noroeste 2 944.6 -2 98
2019-11-12 22:00:00 9.9 0 Calma 5 Oeste 0.4 945.3 -2.3 97
2019-11-12 21:00:00 9.7 0 Calma 10 Nordeste 1.6 946 -2.1 97
2019-11-12 20:00:00 9.6 3 Norte 8 Norte 3.6 946.6 -2.2 96
2019-11-12 19:00:00 9.4 3 Nordeste 10 Nordeste 4.2 947.6 -2.4 96
2019-11-12 18:00:00 9.3 3 Norte 12 Nordeste 3.2 948.1 -3.2 95
2019-11-12 17:00:00 9.1 3 Norte 8 Nordeste 1.2 948.8 -3.7 94
2019-11-12 16:00:00 9.4 2 Norte 10 Norte 0.4 950 -3.9 90
2019-11-12 15:00:00 9.6 4 Noroeste 15 Noroeste 0.2 951.3 -3.8 87
2019-11-12 14:00:00 9.7 8 Oeste 20 Oeste 0 952.5 -3.3 79
2019-11-12 13:00:00 9.3 7 Noroeste 18 Noroeste 0 953.9 -2.1 81
2019-11-12 12:00:00 8.9 7 Noroeste -- -- -- 955.1 -1.1 84
2019-11-12 11:00:00 7.5 3 Norte 6 Nordeste 0 955.8 -0.4 88
2019-11-12 10:00:00 6.6 0 Calma 4 Nordeste 0 956 0.1 89
2019-11-12 09:00:00 6.1 2 Norte 5 Noroeste 0 956.2 -0.2 90
2019-11-12 08:00:00 5.9 2 Noroeste -- -- -- 956.2 -0.3 89
2019-11-12 07:00:00 5.5 0 Calma 4 Norte 0 955.9 -0.9 88
2019-11-12 06:00:00 5.6 0 Calma 6 Noroeste 0 956.4 -0.8 86
2019-11-12 05:00:00 5.4 3 Sudeste 6 Sudeste 0 956.5 -1.6 87
2019-11-12 04:00:00 5 3 Sur 6 Sur 0 956.8 -1.6 88
2019-11-12 03:00:00 4.9 2 Este 5 Sudeste 0 957.2 -1.4 87
2019-11-12 02:00:00 5.3 2 Norte 6 Noroeste 0 958.1 -- 83
2019-11-12 01:00:00 5.5 0 Calma 6 Norte 0 958.4 0 82
2019-11-12 00:00:00 6.2 3 Noroeste -- -- -- 958.6 0.5 77